createdAt,value
2018-03-27T00:00:27.184Z,102185.87
2018-03-27T00:02:54.814Z,102194.31
2018-03-27T00:05:22.436Z,102191.45
2018-03-27T00:07:50.062Z,102187.73
2018-03-27T00:10:17.671Z,102190.86
2018-03-27T00:12:45.371Z,102193.67
2018-03-27T00:15:12.966Z,102191.27
2018-03-27T00:17:40.587Z,102187.56
2018-03-27T00:20:08.197Z,102195.23
2018-03-27T00:22:35.832Z,102185.89
2018-03-27T00:25:03.438Z,102188.36
2018-03-27T00:27:42.736Z,102188.11
2018-03-27T00:30:22.044Z,102184.29
2018-03-27T00:33:01.555Z,102186.31
2018-03-27T00:35:40.999Z,102185.08
2018-03-27T00:38:20.368Z,102181.47
2018-03-27T00:40:47.423Z,102191.11
2018-03-27T00:43:15.052Z,102184.09
2018-03-27T00:45:42.686Z,102182.84
2018-03-27T00:48:10.305Z,102186.45
2018-03-27T00:50:37.994Z,102179.83
2018-03-27T00:53:05.591Z,102180.45
2018-03-27T00:55:33.219Z,102181.95
2018-03-27T00:58:00.817Z,102182.31
2018-03-27T01:00:28.442Z,102182.37
2018-03-27T01:02:56.032Z,102176.69
2018-03-27T01:05:23.668Z,102181.52
2018-03-27T01:07:51.254Z,102183.75
2018-03-27T01:10:18.889Z,102183.33
2018-03-27T01:12:46.532Z,102182.67
2018-03-27T01:15:14.146Z,102193.44
2018-03-27T01:17:42.258Z,102192.37
2018-03-27T01:20:09.904Z,102187.45
2018-03-27T01:22:37.630Z,102187.57
2018-03-27T01:25:05.267Z,102183.75
2018-03-27T01:27:32.883Z,102185.37
2018-03-27T01:30:00.510Z,102180.33
2018-03-27T01:32:28.102Z,102181.00
2018-03-27T01:34:55.697Z,102186.80
2018-03-27T01:37:23.335Z,102175.72
2018-03-27T01:39:50.969Z,102183.09
2018-03-27T01:42:18.604Z,102178.42
2018-03-27T01:44:46.202Z,102180.05
2018-03-27T01:47:13.829Z,102174.16
2018-03-27T01:49:41.417Z,102165.59
2018-03-27T01:52:09.047Z,102173.67
2018-03-27T01:54:36.651Z,102171.77
2018-03-27T01:57:04.299Z,102171.66
2018-03-27T01:59:31.891Z,102163.63
2018-03-27T02:01:59.539Z,102164.33
2018-03-27T02:04:27.179Z,102157.80
2018-03-27T02:06:54.815Z,102161.12
2018-03-27T02:09:22.458Z,102153.55
2018-03-27T02:11:55.756Z,102156.48
2018-03-27T02:14:28.775Z,102157.91
2018-03-27T02:17:01.988Z,102152.83
2018-03-27T02:19:34.994Z,102151.98
2018-03-27T02:22:02.061Z,102158.70
2018-03-27T02:24:30.475Z,102156.23
2018-03-27T02:26:58.117Z,102153.42
2018-03-27T02:29:25.720Z,102151.98
2018-03-27T02:31:53.352Z,102148.55
2018-03-27T02:34:20.951Z,102152.03
2018-03-27T02:36:48.583Z,102151.72
2018-03-27T02:39:16.178Z,102152.66
2018-03-27T02:41:44.665Z,102158.13
2018-03-27T02:44:12.283Z,102156.71
2018-03-27T02:46:39.913Z,102151.73
2018-03-27T02:49:07.500Z,102153.11
2018-03-27T02:51:35.197Z,102152.81
2018-03-27T02:54:02.804Z,102145.22
2018-03-27T02:56:30.449Z,102146.36
2018-03-27T02:58:58.060Z,102152.19
2018-03-27T03:01:25.733Z,102144.38
2018-03-27T03:03:53.386Z,102149.72
2018-03-27T03:06:20.995Z,102152.52
2018-03-27T03:08:48.615Z,102149.70
2018-03-27T03:11:16.314Z,102153.44
2018-03-27T03:13:44.038Z,102155.52
2018-03-27T03:16:11.620Z,102152.45
2018-03-27T03:18:39.252Z,102158.51
2018-03-27T03:21:06.846Z,102158.88
2018-03-27T03:23:34.470Z,102162.59
2018-03-27T03:26:02.065Z,102160.37
2018-03-27T03:28:29.686Z,102156.66
2018-03-27T03:30:57.284Z,102155.09
2018-03-27T03:33:24.918Z,102165.77
2018-03-27T03:35:52.533Z,102160.80
2018-03-27T03:38:20.169Z,102159.85
2018-03-27T03:40:47.877Z,102159.20
2018-03-27T03:43:15.499Z,102158.22
2018-03-27T03:45:43.112Z,102158.94
2018-03-27T03:48:10.856Z,102167.83
2018-03-27T03:50:38.490Z,102162.59
2018-03-27T03:53:06.213Z,102159.73
2018-03-27T03:55:33.795Z,102163.21
2018-03-27T03:58:01.441Z,102163.49
2018-03-27T04:00:29.153Z,102154.50
2018-03-27T04:02:56.740Z,102155.17
2018-03-27T04:05:24.452Z,102157.69
2018-03-27T04:07:52.051Z,102152.52
2018-03-27T04:10:19.745Z,102153.66
2018-03-27T04:12:47.390Z,102156.13
2018-03-27T04:15:15.063Z,102154.31
2018-03-27T04:17:42.676Z,102152.29
2018-03-27T04:20:10.303Z,102162.41
2018-03-27T04:22:37.892Z,102167.76
2018-03-27T04:25:05.571Z,102163.63
2018-03-27T04:27:33.171Z,102162.56
2018-03-27T04:30:00.872Z,102165.59
2018-03-27T04:32:28.509Z,102161.52
2018-03-27T04:34:56.155Z,102168.52
2018-03-27T04:37:23.827Z,102169.14
2018-03-27T04:39:51.479Z,102166.97
2018-03-27T04:42:19.086Z,102166.98
2018-03-27T04:44:46.707Z,102167.80
2018-03-27T04:47:14.317Z,102164.31
2018-03-27T04:49:41.961Z,102158.87
2018-03-27T04:52:09.623Z,102153.03
2018-03-27T04:54:37.244Z,102158.75
2018-03-27T04:57:04.836Z,102146.45
2018-03-27T04:59:32.479Z,102148.32
2018-03-27T05:02:00.065Z,102146.01
2018-03-27T05:04:27.712Z,102149.61
2018-03-27T05:06:55.371Z,102152.47
2018-03-27T05:09:22.980Z,102153.78
2018-03-27T05:11:50.602Z,102152.54
2018-03-27T05:14:18.213Z,102149.00
2018-03-27T05:16:45.850Z,102145.30
2018-03-27T05:19:13.499Z,102139.52
2018-03-27T05:21:41.190Z,102146.83
2018-03-27T05:24:08.863Z,102147.30
2018-03-27T05:26:36.520Z,102148.63
2018-03-27T05:29:04.180Z,102151.22
2018-03-27T05:31:31.875Z,102144.70
2018-03-27T05:33:59.540Z,102146.06
2018-03-27T05:36:27.273Z,102141.09
2018-03-27T05:38:54.904Z,102146.13
2018-03-27T05:41:22.566Z,102146.97
2018-03-27T05:43:50.184Z,102145.47
2018-03-27T05:46:17.905Z,102147.61
2018-03-27T05:48:45.582Z,102148.88
2018-03-27T05:51:13.272Z,102146.30
2018-03-27T05:53:40.950Z,102142.73
2018-03-27T05:56:08.614Z,102141.47
2018-03-27T05:58:36.291Z,102141.33
2018-03-27T06:01:04.025Z,102138.85
2018-03-27T06:03:31.666Z,102138.52
2018-03-27T06:05:59.320Z,102133.89
2018-03-27T06:08:28.008Z,102135.81
2018-03-27T06:10:55.635Z,102138.55
2018-03-27T06:13:23.343Z,102135.91
2018-03-27T06:15:51.000Z,102144.79
2018-03-27T06:18:18.693Z,102147.64
2018-03-27T06:20:46.381Z,102146.28
2018-03-27T06:23:14.674Z,102151.73
2018-03-27T06:25:42.286Z,102148.52
2018-03-27T06:30:47.726Z,102147.12
2018-03-27T06:33:15.399Z,102153.97
2018-03-27T06:35:43.025Z,102143.46
2018-03-27T06:38:10.706Z,102146.21
2018-03-27T06:40:38.377Z,102150.56
2018-03-27T06:43:06.087Z,102160.69
2018-03-27T06:45:33.713Z,102159.09
2018-03-27T06:48:01.398Z,102163.42
2018-03-27T06:50:30.092Z,102156.27
2018-03-27T06:52:57.791Z,102165.39
2018-03-27T06:55:25.475Z,102166.28
2018-03-27T06:57:53.201Z,102171.84
2018-03-27T07:00:20.860Z,102168.44
2018-03-27T07:02:48.618Z,102181.53
2018-03-27T07:05:16.306Z,102185.87
2018-03-27T07:07:44.048Z,102192.45
2018-03-27T07:10:11.746Z,102184.07
2018-03-27T07:12:39.466Z,102197.47
2018-03-27T07:15:07.179Z,102195.27
2018-03-27T07:17:34.906Z,102196.41
2018-03-27T07:20:02.594Z,102197.88
2018-03-27T07:22:30.276Z,102193.91
2018-03-27T07:24:57.931Z,102204.72
2018-03-27T07:27:26.475Z,102200.55
2018-03-27T07:29:54.144Z,102198.27
2018-03-27T07:32:21.836Z,102197.39
2018-03-27T07:34:49.554Z,102186.37
2018-03-27T07:37:17.211Z,102196.94
2018-03-27T07:39:44.848Z,102192.71
2018-03-27T07:42:12.473Z,102186.07
2018-03-27T07:44:40.116Z,102187.52
2018-03-27T07:47:07.741Z,102191.69
2018-03-27T07:49:35.423Z,102184.33
2018-03-27T07:52:03.030Z,102182.69
2018-03-27T07:54:30.769Z,102182.80
2018-03-27T07:56:59.398Z,102185.70
2018-03-27T07:59:27.107Z,102196.55
2018-03-27T08:01:54.740Z,102204.36
2018-03-27T08:04:22.388Z,102205.91
2018-03-27T08:06:50.070Z,102213.22
2018-03-27T08:09:17.710Z,102225.55
2018-03-27T08:11:45.371Z,102228.95
2018-03-27T08:14:13.066Z,102229.03
2018-03-27T08:16:40.854Z,102221.22
2018-03-27T08:19:08.471Z,102230.27
2018-03-27T08:21:36.144Z,102236.11
2018-03-27T08:24:03.936Z,102235.31
2018-03-27T08:26:31.573Z,102228.69
2018-03-27T08:28:59.282Z,102238.67
2018-03-27T08:31:27.821Z,102232.26
2018-03-27T08:33:55.586Z,102229.30
2018-03-27T08:36:23.342Z,102222.72
2018-03-27T08:38:51.010Z,102231.29
2018-03-27T08:41:18.700Z,102223.75
2018-03-27T08:43:46.379Z,102227.93
2018-03-27T08:46:14.880Z,102223.03
2018-03-27T08:48:42.637Z,102221.17
2018-03-27T08:51:10.350Z,102223.11
2018-03-27T08:53:38.030Z,102228.42
2018-03-27T08:56:05.745Z,102249.43
2018-03-27T08:58:33.431Z,102319.58
2018-03-27T09:01:01.148Z,101272.15
2018-03-27T09:03:28.816Z,101273.23
2018-03-27T09:05:56.533Z,101267.58
2018-03-27T09:08:25.009Z,101269.06
2018-03-27T09:10:52.743Z,101270.81
2018-03-27T09:13:20.469Z,101269.91
2018-03-27T09:15:48.183Z,101266.52
2018-03-27T09:18:16.698Z,101267.67
2018-03-27T09:20:44.404Z,101267.95
2018-03-27T09:23:12.083Z,101269.87
2018-03-27T09:25:39.786Z,101260.72
2018-03-27T09:28:07.476Z,101257.56
2018-03-27T09:30:35.196Z,101257.77
2018-03-27T09:33:02.855Z,101255.82
2018-03-27T09:35:30.582Z,101255.49
2018-03-27T09:37:58.242Z,101255.81
2018-03-27T09:40:25.946Z,101253.16
2018-03-27T09:42:53.638Z,101254.52
2018-03-27T09:45:21.366Z,101248.43
2018-03-27T09:47:49.035Z,101261.98
2018-03-27T09:50:16.670Z,101257.48
2018-03-27T09:52:44.419Z,101247.73
2018-03-27T09:55:12.091Z,101247.88
2018-03-27T09:57:39.776Z,101249.87
2018-03-27T10:00:07.472Z,101250.70
2018-03-27T10:02:35.112Z,101249.98
2018-03-27T10:05:02.752Z,101242.54
2018-03-27T10:07:30.489Z,101242.95
2018-03-27T10:09:58.181Z,101234.09
2018-03-27T10:12:25.906Z,101238.16
2018-03-27T10:14:53.501Z,101228.59
2018-03-27T10:17:21.199Z,101232.61
2018-03-27T10:19:48.885Z,101229.59
2018-03-27T10:22:16.512Z,101227.64
2018-03-27T10:24:44.459Z,101230.63
2018-03-27T10:27:12.951Z,101216.95
2018-03-27T10:29:42.788Z,101220.19
2018-03-27T10:32:11.258Z,101218.00
2018-03-27T10:34:39.961Z,101214.95
2018-03-27T10:37:08.728Z,101213.78
2018-03-27T10:39:37.549Z,101202.95
2018-03-27T10:42:05.469Z,101205.48
2018-03-27T10:44:34.109Z,101207.09
2018-03-27T10:47:03.009Z,101194.59
2018-03-27T10:49:31.038Z,101193.42
2018-03-27T10:51:59.838Z,101185.41
2018-03-27T10:54:28.373Z,101187.48
2018-03-27T10:56:57.078Z,101188.22
2018-03-27T10:59:25.539Z,101188.67
2018-03-27T11:01:53.731Z,101183.05
2018-03-27T11:04:22.328Z,101178.52
2018-03-27T11:06:50.404Z,101183.61
2018-03-27T11:09:18.491Z,101182.33
2018-03-27T11:11:47.202Z,101177.31
2018-03-27T11:14:15.567Z,101176.86
2018-03-27T11:16:43.212Z,101174.94
2018-03-27T11:19:10.881Z,101180.25
2018-03-27T11:21:38.577Z,101185.25
2018-03-27T11:24:06.299Z,101174.84
2018-03-27T11:26:34.380Z,101177.23
2018-03-27T11:29:02.085Z,101177.08
2018-03-27T11:31:29.771Z,101175.48
2018-03-27T11:33:57.426Z,101174.30
2018-03-27T11:36:25.029Z,101175.64
2018-03-27T11:38:52.653Z,101174.30
2018-03-27T11:41:20.312Z,101169.58
2018-03-27T11:43:48.247Z,101165.27
2018-03-27T11:46:16.006Z,101170.70
2018-03-27T11:48:43.650Z,101158.20
2018-03-27T11:51:11.351Z,101155.48
2018-03-27T11:53:39.008Z,101154.33
2018-03-27T11:56:06.676Z,101156.92
2018-03-27T11:58:34.453Z,101154.23
2018-03-27T12:01:02.078Z,101153.73
2018-03-27T12:03:29.763Z,101153.03
2018-03-27T12:05:57.449Z,101157.05
2018-03-27T12:08:25.185Z,101154.23
2018-03-27T12:10:52.802Z,101158.95
2018-03-27T12:13:20.508Z,101159.09
2018-03-27T12:15:48.172Z,101153.66
2018-03-27T12:18:15.829Z,101155.06
2018-03-27T12:20:43.482Z,101154.19
2018-03-27T12:23:11.153Z,101144.52
2018-03-27T12:25:38.843Z,101135.86
2018-03-27T12:28:06.507Z,101145.00
2018-03-27T12:30:34.212Z,101138.56
2018-03-27T12:33:01.935Z,101133.95
2018-03-27T12:35:29.725Z,101129.34
2018-03-27T12:37:58.275Z,101129.45
2018-03-27T12:40:25.965Z,101124.06
2018-03-27T12:42:53.686Z,101121.87
2018-03-27T12:45:22.346Z,101119.09
2018-03-27T12:47:50.024Z,101115.83
2018-03-27T12:50:18.773Z,101110.02
2018-03-27T12:52:46.405Z,101107.27
2018-03-27T12:55:14.134Z,101105.96
2018-03-27T12:57:41.811Z,101106.73
2018-03-27T13:00:09.460Z,101101.75
2018-03-27T13:02:37.091Z,101100.67
2018-03-27T13:05:04.742Z,101097.77
2018-03-27T13:07:32.384Z,101099.29
2018-03-27T13:10:00.089Z,101089.16
2018-03-27T13:12:27.759Z,101085.88
2018-03-27T13:14:55.448Z,101093.31
2018-03-27T13:17:23.147Z,101094.14
2018-03-27T13:19:50.840Z,101087.61
2018-03-27T13:22:18.516Z,101089.32
2018-03-27T13:24:46.149Z,101079.03
2018-03-27T13:27:13.838Z,101078.64
2018-03-27T13:29:41.514Z,101075.42
2018-03-27T13:32:09.240Z,101073.48
2018-03-27T13:34:36.890Z,101071.39
2018-03-27T13:37:04.612Z,101074.72
2018-03-27T13:39:32.247Z,101060.22
2018-03-27T13:41:59.920Z,101057.69
2018-03-27T13:44:27.572Z,101055.39
2018-03-27T13:46:55.286Z,101055.13
2018-03-27T13:49:23.004Z,101057.95
2018-03-27T13:51:50.721Z,101053.31
2018-03-27T13:54:18.424Z,101051.33
2018-03-27T13:56:46.129Z,101053.08
2018-03-27T13:59:13.791Z,101041.13
2018-03-27T14:01:42.267Z,101041.27
2018-03-27T14:04:09.885Z,101036.77
2018-03-27T14:06:37.614Z,101034.56
2018-03-27T14:09:06.158Z,101021.61
2018-03-27T14:11:33.868Z,101021.25
2018-03-27T14:14:01.537Z,101019.91
2018-03-27T14:16:29.204Z,101015.58
2018-03-27T14:18:56.857Z,101019.33
2018-03-27T14:21:24.491Z,101020.05
2018-03-27T14:23:52.219Z,101021.28
2018-03-27T14:26:19.887Z,101018.52
2018-03-27T14:28:47.595Z,101004.91
2018-03-27T14:31:15.277Z,100997.74
2018-03-27T14:33:42.921Z,101004.20
2018-03-27T14:36:10.627Z,101001.46
2018-03-27T14:38:38.310Z,100997.02
2018-03-27T14:41:06.798Z,100993.88
2018-03-27T14:43:34.529Z,100990.01
2018-03-27T14:46:02.245Z,100990.48
2018-03-27T14:48:29.985Z,100985.77
2018-03-27T14:50:57.648Z,100991.07
2018-03-27T14:53:26.356Z,100984.30
2018-03-27T14:55:54.014Z,100985.86
2018-03-27T14:58:21.668Z,100987.20
2018-03-27T15:00:49.343Z,100988.09
2018-03-27T15:03:17.051Z,100986.53
2018-03-27T15:05:44.731Z,100991.09
2018-03-27T15:08:12.386Z,100987.47
2018-03-27T15:10:40.047Z,100986.11
2018-03-27T15:13:08.594Z,100983.42
2018-03-27T15:15:36.268Z,100977.74
2018-03-27T15:18:03.975Z,100981.38
2018-03-27T15:20:31.600Z,100978.59
2018-03-27T15:23:00.223Z,100975.08
2018-03-27T15:25:27.884Z,100963.61
2018-03-27T15:27:55.637Z,100969.27
2018-03-27T15:30:23.290Z,100968.77
2018-03-27T15:32:50.919Z,100969.64
2018-03-27T15:35:18.533Z,100967.56
2018-03-27T15:37:46.205Z,100963.03
2018-03-27T15:40:13.931Z,100959.55
2018-03-27T15:42:41.523Z,100953.25
2018-03-27T15:45:09.241Z,100963.53
2018-03-27T15:47:36.850Z,100959.31
2018-03-27T15:50:04.583Z,100959.28
2018-03-27T15:52:32.249Z,100964.23
2018-03-27T15:54:59.961Z,100959.63
2018-03-27T15:57:27.620Z,100955.11
2018-03-27T15:59:55.296Z,100942.36
2018-03-27T16:02:22.928Z,100949.57
2018-03-27T16:04:50.570Z,100946.14
2018-03-27T16:07:18.202Z,100945.34
2018-03-27T16:09:45.851Z,100942.57
2018-03-27T16:12:13.522Z,100935.17
2018-03-27T16:14:41.227Z,100939.62
2018-03-27T16:17:08.899Z,100936.14
2018-03-27T16:19:36.826Z,100938.19
2018-03-27T16:22:04.472Z,100929.91
2018-03-27T16:24:32.157Z,100932.84
2018-03-27T16:27:00.639Z,100929.20
2018-03-27T16:29:28.345Z,100926.63
2018-03-27T16:31:56.063Z,100924.19
2018-03-27T16:34:23.694Z,100926.08
2018-03-27T16:36:51.351Z,100915.70
2018-03-27T16:39:19.005Z,100920.77
2018-03-27T16:41:46.669Z,100921.56
2018-03-27T16:44:14.331Z,100914.96
2018-03-27T16:46:42.002Z,100911.76
2018-03-27T16:49:09.715Z,100911.61
2018-03-27T16:51:37.372Z,100908.42
2018-03-27T16:54:04.969Z,100903.97
2018-03-27T16:56:32.658Z,100899.97
2018-03-27T16:59:00.310Z,100901.42
2018-03-27T17:01:27.994Z,100898.93
2018-03-27T17:03:55.575Z,100898.00
2018-03-27T17:06:23.276Z,100892.09
2018-03-27T17:08:50.883Z,100888.88
2018-03-27T17:11:18.572Z,100889.28
2018-03-27T17:13:46.176Z,100888.34
2018-03-27T17:16:13.831Z,100893.46
2018-03-27T17:18:41.522Z,100884.66
2018-03-27T17:21:09.168Z,100886.19
2018-03-27T17:23:36.840Z,100885.29
2018-03-27T17:26:04.500Z,100879.23
2018-03-27T17:28:32.091Z,100884.84
2018-03-27T17:30:59.744Z,100875.38
2018-03-27T17:33:27.371Z,100876.28
2018-03-27T17:35:55.159Z,100871.16
2018-03-27T17:38:22.780Z,100866.41
2018-03-27T17:40:50.476Z,100877.53
2018-03-27T17:43:18.069Z,100876.17
2018-03-27T17:45:45.733Z,100881.20
2018-03-27T17:48:13.326Z,100880.41
2018-03-27T17:50:40.937Z,100877.59
2018-03-27T17:53:08.581Z,100885.33
2018-03-27T17:55:36.232Z,100887.20
2018-03-27T17:58:03.949Z,100881.45
2018-03-27T18:00:31.601Z,100889.63
2018-03-27T18:02:59.252Z,100889.36
2018-03-27T18:05:26.840Z,100891.61
2018-03-27T18:07:54.509Z,100894.35
2018-03-27T18:10:22.105Z,100883.39
2018-03-27T18:12:49.763Z,100883.98
2018-03-27T18:15:17.355Z,100879.89
2018-03-27T18:17:44.980Z,100881.70
2018-03-27T18:20:12.570Z,100884.44
2018-03-27T18:22:40.338Z,100887.41
2018-03-27T18:25:07.947Z,100883.09
2018-03-27T18:27:37.269Z,100894.25
2018-03-27T18:30:05.531Z,100887.95
2018-03-27T18:32:33.185Z,100889.77
2018-03-27T18:35:00.793Z,100892.36
2018-03-27T18:37:28.429Z,100890.27
2018-03-27T18:39:56.033Z,100889.61
2018-03-27T18:42:23.674Z,100884.69
2018-03-27T18:44:51.303Z,100889.12
2018-03-27T18:47:18.951Z,100881.48
2018-03-27T18:49:46.542Z,100895.75
2018-03-27T18:52:14.182Z,100891.26
2018-03-27T18:54:41.799Z,100882.76
2018-03-27T18:57:09.492Z,100881.09
2018-03-27T18:59:37.100Z,100879.59
2018-03-27T19:02:04.773Z,100878.33
2018-03-27T19:04:32.423Z,100881.16
2018-03-27T19:07:00.101Z,100879.65
2018-03-27T19:09:27.770Z,100871.74
2018-03-27T19:11:55.412Z,100875.66
2018-03-27T19:14:23.095Z,100867.49
2018-03-27T19:16:50.733Z,100870.38
2018-03-27T19:19:18.413Z,100872.39
2018-03-27T19:21:46.035Z,100868.58
2018-03-27T19:24:13.656Z,100864.37
2018-03-27T19:26:41.281Z,100865.86
2018-03-27T19:29:08.898Z,100866.91
2018-03-27T19:31:36.500Z,100860.37
2018-03-27T19:34:04.164Z,100852.88
2018-03-27T19:36:31.762Z,100857.66
2018-03-27T19:38:59.415Z,100858.00
2018-03-27T19:41:27.037Z,100847.89
2018-03-27T19:43:54.673Z,100845.59
2018-03-27T19:46:22.283Z,100849.18
2018-03-27T19:48:49.987Z,100848.02
2018-03-27T19:51:17.629Z,100842.46
2018-03-27T19:53:45.248Z,100846.00
2018-03-27T19:56:12.885Z,100845.81
2018-03-27T19:58:40.529Z,100834.34
2018-03-27T20:01:08.152Z,100827.67
2018-03-27T20:03:35.818Z,100827.56
2018-03-27T20:06:03.522Z,100830.30
2018-03-27T20:08:31.138Z,100829.00
2018-03-27T20:10:58.786Z,100828.27
2018-03-27T20:13:26.448Z,100835.15
2018-03-27T20:15:54.093Z,100827.60
2018-03-27T20:18:21.817Z,100827.24
2018-03-27T20:20:49.528Z,100833.58
2018-03-27T20:23:17.157Z,100827.26
2018-03-27T20:25:44.809Z,100832.64
2018-03-27T20:28:12.528Z,100829.23
2018-03-27T20:30:40.147Z,100828.03
2018-03-27T20:33:07.830Z,100827.34
2018-03-27T20:35:35.497Z,100827.84
2018-03-27T20:38:22.858Z,100828.37
2018-03-27T20:40:50.678Z,100828.27
2018-03-27T20:43:18.289Z,100822.58
2018-03-27T20:45:45.951Z,100824.56
2018-03-27T20:48:13.578Z,100825.06
2018-03-27T20:50:41.317Z,100822.86
2018-03-27T20:53:08.956Z,100818.47
2018-03-27T20:55:36.728Z,100817.38
2018-03-27T20:58:04.361Z,100816.67
2018-03-27T21:00:32.021Z,100819.22
2018-03-27T21:02:59.698Z,100812.71
2018-03-27T21:05:27.451Z,100810.77
2018-03-27T21:07:55.081Z,100809.73
2018-03-27T21:10:22.780Z,100808.59
2018-03-27T21:12:51.324Z,100809.70
2018-03-27T21:15:18.951Z,100806.21
2018-03-27T21:17:46.616Z,100802.50
2018-03-27T21:20:14.256Z,100803.55
2018-03-27T21:22:41.961Z,100798.53
2018-03-27T21:25:09.593Z,100800.48
2018-03-27T21:27:37.304Z,100806.93
2018-03-27T21:30:04.988Z,100794.52
2018-03-27T21:32:32.641Z,100798.46
2018-03-27T21:35:00.282Z,100799.10
2018-03-27T21:37:27.948Z,100800.64
2018-03-27T21:39:55.545Z,100801.36
2018-03-27T21:42:23.217Z,100800.20
2018-03-27T21:44:50.839Z,100796.10
2018-03-27T21:47:18.479Z,101731.48
2018-03-27T21:49:46.198Z,101719.72
2018-03-27T21:52:13.829Z,101705.77
2018-03-27T21:54:41.502Z,101702.88
2018-03-27T21:57:09.122Z,101695.76
2018-03-27T21:59:36.766Z,101697.05
2018-03-27T22:02:04.441Z,101685.61
2018-03-27T22:04:32.204Z,101675.35
2018-03-27T22:06:59.827Z,101676.34
2018-03-27T22:09:27.495Z,101666.97
2018-03-27T22:11:55.117Z,101662.72
2018-03-27T22:14:22.781Z,101659.64
2018-03-27T22:16:50.380Z,101663.75
2018-03-27T22:19:18.010Z,101656.64
2018-03-27T22:21:45.642Z,101660.93
2018-03-27T22:24:13.305Z,101654.05
2018-03-27T22:26:40.941Z,101648.39
2018-03-27T22:29:08.629Z,101645.46
2018-03-27T22:31:36.375Z,101645.02
2018-03-27T22:34:04.049Z,101639.67
2018-03-27T22:36:31.688Z,101641.95
2018-03-27T22:38:59.347Z,101633.95
2018-03-27T22:41:27.074Z,101629.14
2018-03-27T22:43:54.728Z,101630.52
2018-03-27T22:46:22.375Z,101635.14
2018-03-27T22:48:50.125Z,101630.41
2018-03-27T22:51:17.715Z,101614.37
2018-03-27T22:53:45.385Z,101613.23
2018-03-27T22:56:13.032Z,101606.55
2018-03-27T22:58:40.688Z,101602.87
2018-03-27T23:01:08.812Z,101609.86
2018-03-27T23:15:28.010Z,101596.81
2018-03-27T23:17:55.726Z,101593.64
2018-03-27T23:32:52.556Z,101575.97
2018-03-27T23:38:29.753Z,101573.48
2018-03-27T23:40:57.488Z,101569.17
2018-03-27T23:43:25.182Z,101574.79
2018-03-27T23:45:52.854Z,101572.01
2018-03-27T23:48:20.533Z,101567.05
2018-03-27T23:50:48.170Z,101563.11
2018-03-27T23:53:15.870Z,101569.51
2018-03-27T23:55:43.502Z,101562.05
2018-03-27T23:58:11.206Z,101564.11
